Time;durP1;ratioP1;P1;durP2;ratioP2;P2;SDS_P1;SDS_P2;PMS_P1;PMS_P2;Temp;Humidity;BMP_temperature;BMP_pressure;BME280_temperature;BME280_humidity;BME280_pressure;Samples;Min_cycle;Max_cycle;Signal;HPM_P1;HPM_P2
2021/09/18 00:01:54;;;;;;;21.30;15.20;;;10.90;99.90;;;;;;5131239;27;20990;-67
2021/09/18 00:04:21;;;;;;;16.83;15.13;;;11.00;99.90;;;;;;5131613;27;20446;-66
2021/09/18 00:06:48;;;;;;;16.73;15.00;;;10.90;99.90;;;;;;5131473;27;20537;-67
2021/09/18 00:09:15;;;;;;;18.23;15.33;;;10.90;99.90;;;;;;5131609;27;20527;-67
2021/09/18 00:11:42;;;;;;;16.20;14.50;;;10.90;99.90;;;;;;5130960;27;20490;-67
2021/09/18 00:14:08;;;;;;;19.20;16.03;;;10.80;99.90;;;;;;5124935;27;20531;-66
2021/09/18 00:16:37;;;;;;;16.77;14.87;;;10.80;99.90;;;;;;5131488;27;20464;-67
2021/09/18 00:19:04;;;;;;;18.23;16.40;;;10.80;99.90;;;;;;5126787;27;20472;-66
2021/09/18 00:21:31;;;;;;;18.07;15.33;;;10.80;99.90;;;;;;5119742;27;20521;-67
2021/09/18 00:23:58;;;;;;;17.30;15.60;;;10.80;99.90;;;;;;5131203;27;20451;-66
2021/09/18 00:26:25;;;;;;;17.70;14.27;;;10.90;99.90;;;;;;5130811;27;20488;-66
2021/09/18 00:28:51;;;;;;;17.03;14.77;;;10.90;99.90;;;;;;5131332;27;20448;-67
2021/09/18 00:31:18;;;;;;;18.53;15.37;;;10.90;99.90;;;;;;5130805;27;20511;-67
2021/09/18 00:33:46;;;;;;;16.03;14.40;;;10.90;99.90;;;;;;5131090;27;20436;-67
2021/09/18 00:36:13;;;;;;;16.67;14.87;;;10.80;99.90;;;;;;5130735;27;20544;-67
2021/09/18 00:38:40;;;;;;;16.53;14.83;;;10.80;99.90;;;;;;5130924;27;20436;-67
2021/09/18 00:41:08;;;;;;;16.57;14.77;;;10.80;99.90;;;;;;5123806;27;21158;-66
2021/09/18 00:43:34;;;;;;;17.13;15.43;;;10.70;99.90;;;;;;5130937;27;20439;-66
2021/09/18 00:46:01;;;;;;;16.83;15.13;;;10.70;99.90;;;;;;5130513;27;20509;-66
2021/09/18 00:48:28;;;;;;;16.60;14.80;;;10.70;99.90;;;;;;5130651;27;20921;-66
2021/09/18 00:50:57;;;;;;;17.77;15.33;;;10.70;99.90;;;;;;5119347;27;20477;-65
2021/09/18 00:53:24;;;;;;;17.60;15.17;;;10.60;99.90;;;;;;5109730;28;20443;-64
2021/09/18 00:55:51;;;;;;;16.87;15.17;;;10.60;99.90;;;;;;5126041;27;20559;-67
2021/09/18 00:58:18;;;;;;;16.70;15.00;;;10.50;99.90;;;;;;5130409;27;20447;-66
2021/09/18 01:00:45;;;;;;;19.83;16.23;;;10.60;99.90;;;;;;5124010;27;20451;-66
2021/09/18 01:03:12;;;;;;;16.60;14.90;;;10.60;99.90;;;;;;5130174;27;21056;-67
2021/09/18 01:05:39;;;;;;;16.00;14.30;;;10.60;99.90;;;;;;5130407;27;21387;-66
2021/09/18 01:08:10;;;;;;;17.50;15.70;;;10.60;99.90;;;;;;5130165;27;20436;-66
2021/09/18 01:10:37;;;;;;;15.93;14.33;;;10.60;99.90;;;;;;5130789;27;20544;-66
2021/09/18 01:13:06;;;;;;;17.97;16.07;;;10.60;99.90;;;;;;5129766;27;20990;-66
2021/09/18 01:15:35;;;;;;;18.00;16.20;;;10.50;99.90;;;;;;5130366;27;20458;-65
2021/09/18 01:18:02;;;;;;;17.90;16.10;;;10.70;99.90;;;;;;5129855;27;20443;-66
2021/09/18 01:20:30;;;;;;;20.13;17.00;;;10.70;99.90;;;;;;5118762;27;20517;-67
2021/09/18 01:22:59;;;;;;;17.73;15.87;;;10.70;99.90;;;;;;5115578;27;20460;-66
2021/09/18 01:25:29;;;;;;;18.47;16.30;;;10.60;99.90;;;;;;5109826;27;20808;-66
2021/09/18 01:27:56;;;;;;;19.00;16.17;;;10.60;99.90;;;;;;5109939;28;20434;-67
2021/09/18 01:30:24;;;;;;;17.50;15.20;;;10.70;99.90;;;;;;5108957;27;20487;-67
2021/09/18 01:32:52;;;;;;;18.47;16.00;;;10.70;99.90;;;;;;5109124;27;20952;-67
2021/09/18 01:35:20;;;;;;;18.53;16.57;;;10.60;99.90;;;;;;5126741;27;20892;-65
2021/09/18 01:37:47;;;;;;;18.07;15.80;;;10.70;99.90;;;;;;5129848;27;20959;-65
2021/09/18 01:40:19;;;;;;;17.60;15.70;;;10.70;99.90;;;;;;5128721;27;20467;-66
2021/09/18 01:42:48;;;;;;;17.03;15.33;;;10.70;99.90;;;;;;5129521;27;21272;-68
2021/09/18 01:45:16;;;;;;;21.77;17.30;;;10.60;99.90;;;;;;5129006;27;20456;-66
2021/09/18 01:47:44;;;;;;;20.07;16.97;;;10.50;99.90;;;;;;5129634;27;20449;-67
2021/09/18 01:50:26;;;;;;;19.03;16.30;;;10.60;99.90;;;;;;5120804;27;20456;-66
2021/09/18 01:52:54;;;;;;;18.73;16.67;;;10.60;99.90;;;;;;5115205;27;20445;-66
2021/09/18 01:55:21;;;;;;;18.37;16.30;;;10.60;99.90;;;;;;5108861;27;20457;-66
2021/09/18 01:57:51;;;;;;;20.50;17.00;;;10.50;99.90;;;;;;5129228;27;20428;-67
2021/09/18 02:00:18;;;;;;;22.40;18.40;;;10.50;99.90;;;;;;5129090;27;20432;-66
2021/09/18 02:02:46;;;;;;;22.37;17.43;;;10.50;99.90;;;;;;5129205;27;20519;-66
2021/09/18 02:05:15;;;;;;;18.93;16.80;;;10.40;99.90;;;;;;5129066;27;20461;-66
2021/09/18 02:07:42;;;;;;;19.40;16.90;;;10.50;99.90;;;;;;5128941;27;20443;-66
2021/09/18 02:10:12;;;;;;;19.83;17.73;;;10.50;99.90;;;;;;5128816;27;20519;-66
2021/09/18 02:12:39;;;;;;;20.33;16.97;;;10.60;99.90;;;;;;5128880;27;20571;-66
2021/09/18 02:15:09;;;;;;;19.40;16.30;;;10.60;99.90;;;;;;5129076;27;20567;-66
2021/09/18 02:17:36;;;;;;;18.53;16.03;;;10.60;99.90;;;;;;5129393;27;20477;-67
2021/09/18 02:20:03;;;;;;;18.57;15.27;;;10.60;99.90;;;;;;5124033;27;20447;-71
2021/09/18 02:22:30;;;;;;;16.43;14.83;;;10.50;99.90;;;;;;5111891;27;20441;-66
2021/09/18 02:24:57;;;;;;;16.30;14.53;;;10.60;99.90;;;;;;5108457;28;20552;-66
2021/09/18 02:27:24;;;;;;;16.50;14.73;;;10.60;99.90;;;;;;5122710;27;20444;-66
2021/09/18 02:29:51;;;;;;;15.30;13.70;;;10.50;99.90;;;;;;5128906;27;20437;-66
2021/09/18 02:32:20;;;;;;;15.93;14.30;;;10.40;99.90;;;;;;5128233;27;20478;-66
2021/09/18 02:34:46;;;;;;;17.77;14.57;;;10.30;99.90;;;;;;5128511;27;20444;-66
2021/09/18 02:37:13;;;;;;;15.33;13.73;;;10.20;99.90;;;;;;5128181;27;20436;-66
2021/09/18 02:39:41;;;;;;;16.70;14.40;;;10.20;99.90;;;;;;5122814;27;20448;-66
2021/09/18 02:42:08;;;;;;;16.13;14.43;;;10.30;99.90;;;;;;5127827;27;20450;-66
2021/09/18 02:44:35;;;;;;;15.17;13.70;;;10.30;99.90;;;;;;5128674;27;20539;-66
2021/09/18 02:47:04;;;;;;;23.90;17.17;;;10.30;99.90;;;;;;5128170;27;20494;-66
2021/09/18 02:49:32;;;;;;;17.40;15.60;;;10.30;99.90;;;;;;5122964;27;20448;-66
2021/09/18 02:51:59;;;;;;;16.47;14.67;;;10.30;99.90;;;;;;5119054;27;20498;-66
2021/09/18 02:54:26;;;;;;;15.43;13.83;;;10.30;99.90;;;;;;5122708;27;21162;-66
2021/09/18 02:56:53;;;;;;;16.83;15.10;;;10.30;99.90;;;;;;5128789;27;20535;-66
2021/09/18 02:59:19;;;;;;;17.10;15.07;;;10.20;99.90;;;;;;5128266;27;20428;-66
2021/09/18 03:01:46;;;;;;;18.07;16.13;;;10.20;99.90;;;;;;5128485;27;20483;-66
2021/09/18 03:04:13;;;;;;;16.17;14.10;;;10.20;99.90;;;;;;5128090;27;20523;-66
2021/09/18 03:06:41;;;;;;;17.70;14.73;;;10.20;99.90;;;;;;5109914;27;20456;-66
2021/09/18 03:09:08;;;;;;;20.20;16.80;;;10.10;99.90;;;;;;5122798;27;20440;-66
2021/09/18 03:11:35;;;;;;;18.40;16.00;;;10.00;99.90;;;;;;5129229;27;20480;-66
2021/09/18 03:14:02;;;;;;;19.70;16.00;;;10.00;99.90;;;;;;5109411;28;20441;-66
2021/09/18 03:16:29;;;;;;;19.43;16.77;;;10.00;99.90;;;;;;5110875;28;20463;-66
2021/09/18 03:18:56;;;;;;;19.43;15.80;;;9.90;99.90;;;;;;5109431;28;20429;-65
2021/09/18 03:21:22;;;;;;;17.17;14.27;;;9.90;99.90;;;;;;5110222;28;20948;-66
2021/09/18 03:23:51;;;;;;;16.37;14.60;;;9.90;99.90;;;;;;5110455;28;20437;-66
2021/09/18 03:26:18;;;;;;;18.87;16.37;;;10.00;99.90;;;;;;5110622;28;20460;-66
2021/09/18 03:28:45;;;;;;;17.60;15.30;;;10.00;99.90;;;;;;5110348;28;20964;-66
2021/09/18 03:31:11;;;;;;;16.43;14.50;;;10.00;99.90;;;;;;5110102;28;21122;-66
2021/09/18 03:33:39;;;;;;;17.03;15.13;;;10.00;99.90;;;;;;5110579;28;20437;-66
2021/09/18 03:36:06;;;;;;;17.07;15.27;;;10.00;99.90;;;;;;5110175;28;21307;-66
2021/09/18 03:38:33;;;;;;;18.50;15.13;;;10.00;99.90;;;;;;5110623;28;20447;-66
2021/09/18 03:41:01;;;;;;;16.50;14.80;;;9.90;99.90;;;;;;5110361;28;20514;-66
2021/09/18 03:43:28;;;;;;;15.53;13.67;;;10.00;99.90;;;;;;5110140;28;20433;-66
2021/09/18 03:45:55;;;;;;;17.83;14.87;;;9.90;99.90;;;;;;5110215;28;20552;-65
2021/09/18 03:48:22;;;;;;;18.20;13.60;;;10.00;99.90;;;;;;5110339;28;20545;-66
2021/09/18 03:50:49;;;;;;;19.17;14.30;;;9.90;99.90;;;;;;5110128;28;20941;-66
2021/09/18 03:53:16;;;;;;;16.13;14.43;;;9.90;99.90;;;;;;5110358;28;20456;-66
2021/09/18 03:55:43;;;;;;;16.20;14.50;;;9.80;99.90;;;;;;5110527;28;20457;-66
2021/09/18 03:58:11;;;;;;;17.47;13.90;;;9.80;99.90;;;;;;5110345;28;20441;-66
2021/09/18 04:00:38;;;;;;;15.57;13.67;;;9.80;99.90;;;;;;5110178;28;20447;-66
2021/09/18 04:03:05;;;;;;;17.47;13.13;;;9.80;99.90;;;;;;5109620;28;20930;-66
2021/09/18 04:05:32;;;;;;;14.80;13.30;;;9.80;99.90;;;;;;5110348;28;20544;-66
2021/09/18 04:07:59;;;;;;;15.23;13.73;;;9.90;99.90;;;;;;5110001;28;20933;-66
2021/09/18 04:10:26;;;;;;;15.03;13.37;;;9.80;99.90;;;;;;5110194;28;20449;-66
2021/09/18 04:12:52;;;;;;;16.27;13.90;;;9.90;99.90;;;;;;5109762;28;21148;-66
2021/09/18 04:15:21;;;;;;;19.33;14.83;;;9.90;99.90;;;;;;5109928;28;20518;-66
2021/09/18 04:17:48;;;;;;;14.93;13.43;;;9.90;99.90;;;;;;5109920;28;20480;-66
2021/09/18 04:20:14;;;;;;;14.67;13.07;;;9.90;99.90;;;;;;5110067;28;20433;-66
2021/09/18 04:22:41;;;;;;;14.53;13.00;;;9.70;99.90;;;;;;5109677;28;20441;-66
2021/09/18 04:25:09;;;;;;;13.27;11.87;;;9.70;99.90;;;;;;5109937;28;20461;-66
2021/09/18 04:27:36;;;;;;;13.97;11.90;;;9.70;99.90;;;;;;5109930;28;20441;-66
2021/09/18 04:30:04;;;;;;;14.20;12.20;;;9.60;99.90;;;;;;5110402;28;20441;-66
2021/09/18 04:32:33;;;;;;;14.53;11.97;;;9.50;99.90;;;;;;5113602;28;20611;-66
2021/09/18 04:34:59;;;;;;;13.10;11.80;;;9.50;99.90;;;;;;5113824;28;20456;-66
2021/09/18 04:37:26;;;;;;;15.47;12.63;;;9.60;99.90;;;;;;5114000;28;20467;-66
2021/09/18 04:39:53;;;;;;;15.30;13.70;;;9.60;99.90;;;;;;5113297;28;20448;-66
2021/09/18 04:42:20;;;;;;;13.60;12.17;;;9.60;99.90;;;;;;5113610;28;20443;-66
2021/09/18 04:44:47;;;;;;;13.60;12.20;;;9.60;99.90;;;;;;5113828;28;20429;-66
2021/09/18 04:47:13;;;;;;;14.50;12.63;;;9.70;99.90;;;;;;5113970;28;20443;-65
2021/09/18 04:49:42;;;;;;;14.03;12.57;;;9.60;99.90;;;;;;5120278;27;20438;-65
2021/09/18 04:52:09;;;;;;;15.70;13.90;;;9.50;99.90;;;;;;5151405;27;20855;-66
2021/09/18 04:54:35;;;;;;;15.33;12.93;;;9.40;99.90;;;;;;5138784;27;20439;-66
2021/09/18 04:57:02;;;;;;;15.60;12.40;;;9.40;99.90;;;;;;5145280;27;20441;-66
2021/09/18 04:59:29;;;;;;;15.40;13.10;;;9.40;99.90;;;;;;5146441;27;20439;-66
2021/09/18 05:01:56;;;;;;;15.00;13.40;;;9.30;99.90;;;;;;5154096;27;20427;-66
2021/09/18 05:04:23;;;;;;;15.93;13.30;;;9.30;99.90;;;;;;5154679;27;20524;-66
2021/09/18 05:06:51;;;;;;;14.23;12.57;;;9.30;99.90;;;;;;5154216;27;20550;-65
2021/09/18 05:09:18;;;;;;;19.20;14.47;;;9.30;99.90;;;;;;5154347;27;20442;-66
2021/09/18 05:11:45;;;;;;;15.03;12.77;;;9.40;99.90;;;;;;5153519;27;20490;-66
2021/09/18 05:14:11;;;;;;;17.50;13.47;;;9.50;99.90;;;;;;5154281;27;21155;-66
2021/09/18 05:16:38;;;;;;;14.30;12.60;;;9.50;99.90;;;;;;5154838;27;20455;-65
2021/09/18 05:19:05;;;;;;;12.70;11.40;;;9.50;99.90;;;;;;5154542;27;20504;-66
2021/09/18 05:21:32;;;;;;;14.13;11.90;;;9.40;99.90;;;;;;5153650;27;20470;-65
2021/09/18 05:24:00;;;;;;;16.90;13.50;;;9.40;99.90;;;;;;5154220;27;20517;-66
2021/09/18 05:26:28;;;;;;;16.43;13.17;;;9.40;99.90;;;;;;5153581;27;20452;-65
2021/09/18 05:28:55;;;;;;;13.77;12.27;;;9.50;99.90;;;;;;5153727;27;21177;-65
2021/09/18 05:31:22;;;;;;;16.53;13.23;;;9.60;99.90;;;;;;5153905;27;20443;-66
2021/09/18 05:33:48;;;;;;;14.87;13.37;;;9.50;99.90;;;;;;5153479;27;20434;-65
2021/09/18 05:36:15;;;;;;;15.93;13.57;;;9.60;99.90;;;;;;5153605;27;20455;-66
2021/09/18 05:38:42;;;;;;;13.50;11.73;;;9.60;99.90;;;;;;5153476;27;20449;-66
2021/09/18 05:41:10;;;;;;;14.07;12.23;;;9.80;99.90;;;;;;5153707;27;20439;-65
2021/09/18 05:43:37;;;;;;;14.30;12.50;;;9.70;99.90;;;;;;5152176;27;20526;-65
2021/09/18 05:46:04;;;;;;;14.57;13.07;;;9.70;99.90;;;;;;5153252;27;20463;-65
2021/09/18 05:48:31;;;;;;;15.80;13.00;;;9.70;99.90;;;;;;5153165;27;20445;-66
2021/09/18 05:50:57;;;;;;;16.20;13.63;;;9.60;99.90;;;;;;5153057;27;21138;-65
2021/09/18 05:53:24;;;;;;;14.10;12.10;;;9.70;99.90;;;;;;5152517;27;20477;-65
2021/09/18 05:55:51;;;;;;;15.60;12.23;;;9.80;99.90;;;;;;5152834;27;20969;-65
2021/09/18 05:58:19;;;;;;;13.80;12.07;;;10.00;99.90;;;;;;5152739;27;20527;-66
2021/09/18 06:00:46;;;;;;;15.83;12.23;;;10.00;99.90;;;;;;5152775;27;20450;-65
2021/09/18 06:03:13;;;;;;;15.13;12.33;;;10.00;99.90;;;;;;5152481;27;20435;-65
2021/09/18 06:05:40;;;;;;;15.63;14.03;;;10.00;99.90;;;;;;5152380;27;20447;-65
2021/09/18 06:08:07;;;;;;;17.27;15.37;;;10.10;99.90;;;;;;5152612;27;20955;-65
2021/09/18 06:10:33;;;;;;;17.70;15.40;;;10.20;99.90;;;;;;5152500;27;20427;-65
2021/09/18 06:13:00;;;;;;;17.63;15.03;;;10.30;99.90;;;;;;5152665;27;20471;-65
2021/09/18 06:15:28;;;;;;;19.07;15.03;;;10.40;99.90;;;;;;5152237;27;20956;-66
2021/09/18 06:17:55;;;;;;;15.17;12.93;;;10.50;99.90;;;;;;5152488;27;20446;-66
2021/09/18 06:20:23;;;;;;;15.20;12.57;;;10.50;99.90;;;;;;5152238;27;20427;-65
2021/09/18 06:22:49;;;;;;;14.80;13.30;;;10.60;99.90;;;;;;5152307;27;20523;-66
2021/09/18 06:25:16;;;;;;;14.77;13.27;;;10.70;99.90;;;;;;5152384;27;21137;-66
2021/09/18 06:27:43;;;;;;;17.00;14.10;;;10.70;99.90;;;;;;5152616;27;20867;-66
2021/09/18 06:30:12;;;;;;;15.13;13.47;;;10.80;99.90;;;;;;5152352;27;20431;-66
2021/09/18 06:32:40;;;;;;;17.90;15.60;;;10.90;99.90;;;;;;5151961;27;20551;-65
2021/09/18 06:35:07;;;;;;;19.00;15.30;;;11.00;99.90;;;;;;5152373;27;21208;-65
2021/09/18 06:37:41;;;;;;;19.77;17.07;;;11.00;99.90;;;;;;5141917;27;20445;-66
2021/09/18 06:40:09;;;;;;;18.17;15.60;;;11.10;99.90;;;;;;5129374;27;20512;-65
2021/09/18 06:42:36;;;;;;;17.83;15.13;;;11.20;99.90;;;;;;5131632;27;20424;-64
2021/09/18 06:45:04;;;;;;;18.53;16.50;;;11.30;99.90;;;;;;5131841;27;20560;-66
2021/09/18 06:47:31;;;;;;;16.07;14.47;;;11.40;99.90;;;;;;5131021;27;20464;-66
2021/09/18 06:49:59;;;;;;;18.07;16.17;;;11.40;99.90;;;;;;5131352;27;20914;-67
2021/09/18 06:52:26;;;;;;;20.70;18.50;;;11.50;99.90;;;;;;5130496;27;20481;-67
2021/09/18 06:54:53;;;;;;;26.07;17.17;;;11.60;99.90;;;;;;5130994;27;20442;-67
2021/09/18 06:57:20;;;;;;;20.53;17.27;;;11.60;99.90;;;;;;5130900;27;20515;-67
2021/09/18 06:59:46;;;;;;;15.73;14.13;;;11.70;99.90;;;;;;5130891;27;20832;-66
2021/09/18 07:02:13;;;;;;;16.23;14.53;;;11.80;99.90;;;;;;5130347;27;20431;-67
2021/09/18 07:04:40;;;;;;;19.20;16.20;;;11.90;99.90;;;;;;5130639;27;20524;-66
2021/09/18 07:07:08;;;;;;;18.57;15.70;;;11.90;99.90;;;;;;5130924;27;20449;-66
2021/09/18 07:09:35;;;;;;;17.17;15.50;;;12.00;99.90;;;;;;5131002;27;20507;-66
2021/09/18 07:12:03;;;;;;;24.17;17.17;;;12.10;99.90;;;;;;5130432;27;20479;-66
2021/09/18 07:14:30;;;;;;;16.60;14.90;;;12.10;99.90;;;;;;5130603;27;20997;-70
2021/09/18 07:16:57;;;;;;;17.00;15.23;;;12.30;99.90;;;;;;5130682;27;20973;-68
2021/09/18 07:19:23;;;;;;;16.53;14.83;;;12.40;99.90;;;;;;5130652;27;20996;-68
2021/09/18 07:21:50;;;;;;;17.30;15.57;;;12.40;99.90;;;;;;5130403;27;21005;-66
2021/09/18 07:24:18;;;;;;;18.43;15.87;;;12.50;99.90;;;;;;5130382;27;20508;-66
2021/09/18 07:26:46;;;;;;;16.80;14.83;;;12.60;99.90;;;;;;5130280;27;20460;-66
2021/09/18 07:29:13;;;;;;;18.17;15.90;;;12.70;99.90;;;;;;5125358;27;20990;-65
2021/09/18 07:31:39;;;;;;;18.37;16.47;;;12.80;99.90;;;;;;5120872;28;20429;-66
2021/09/18 07:34:06;;;;;;;15.53;13.87;;;12.90;99.90;;;;;;5109700;28;20564;-69
2021/09/18 07:36:33;;;;;;;17.07;15.00;;;13.00;99.90;;;;;;5109940;28;20550;-66
2021/09/18 07:39:00;;;;;;;16.73;15.13;;;13.00;99.90;;;;;;5109832;28;20520;-65
2021/09/18 07:41:28;;;;;;;15.97;14.47;;;13.10;99.90;;;;;;5109356;28;20454;-66
2021/09/18 07:44:00;;;;;;;17.10;15.50;;;13.20;99.90;;;;;;5109641;27;20508;-67
2021/09/18 07:46:27;;;;;;;16.77;15.03;;;13.30;99.90;;;;;;5110022;28;20461;-66
2021/09/18 07:48:54;;;;;;;15.77;13.77;;;13.30;99.90;;;;;;5109806;28;20441;-66
2021/09/18 07:51:21;;;;;;;15.73;14.13;;;13.40;99.90;;;;;;5109460;28;20437;-65
2021/09/18 07:53:48;;;;;;;21.20;14.03;;;13.60;99.90;;;;;;5110162;28;20491;-66
2021/09/18 07:56:14;;;;;;;16.90;15.10;;;13.60;99.90;;;;;;5110036;28;20453;-65
2021/09/18 07:58:43;;;;;;;17.83;16.03;;;13.70;99.90;;;;;;5109834;28;20521;-66
2021/09/18 08:01:10;;;;;;;16.10;14.50;;;13.70;99.90;;;;;;5109547;28;20509;-67
2021/09/18 08:03:37;;;;;;;16.73;15.00;;;13.80;99.90;;;;;;5110019;28;20192;-66
2021/09/18 08:06:05;;;;;;;17.13;14.30;;;13.90;99.90;;;;;;5115651;27;21079;-66
2021/09/18 08:08:32;;;;;;;16.17;13.93;;;14.00;99.90;;;;;;5131615;27;20482;-67
2021/09/18 08:10:58;;;;;;;16.07;14.37;;;14.10;99.90;;;;;;5132084;27;20524;-68
2021/09/18 08:13:25;;;;;;;15.40;13.80;;;14.20;99.90;;;;;;5132233;27;20468;-67
2021/09/18 08:15:53;;;;;;;16.77;15.07;;;14.30;99.90;;;;;;5132291;27;20483;-70
2021/09/18 08:18:20;;;;;;;17.03;14.43;;;14.40;99.90;;;;;;5131965;27;20440;-68
2021/09/18 08:20:47;;;;;;;14.10;12.70;;;14.60;99.90;;;;;;5132099;27;20515;-68
2021/09/18 08:23:14;;;;;;;13.70;12.30;;;14.70;99.90;;;;;;5129117;27;20445;-68
2021/09/18 08:25:41;;;;;;;16.03;14.43;;;14.80;99.90;;;;;;5129013;27;20451;-67
2021/09/18 08:28:08;;;;;;;14.37;12.97;;;14.90;99.90;;;;;;5123889;27;20454;-66
2021/09/18 08:30:35;;;;;;;13.60;12.30;;;15.10;99.90;;;;;;5120307;27;20530;-68
2021/09/18 08:33:03;;;;;;;13.17;11.87;;;15.10;99.90;;;;;;5130026;27;20480;-67
2021/09/18 08:35:30;;;;;;;13.37;12.10;;;15.30;99.90;;;;;;5133225;27;20504;-67
2021/09/18 08:37:57;;;;;;;14.47;13.13;;;15.40;99.90;;;;;;5133433;27;20519;-68
2021/09/18 08:40:27;;;;;;;13.80;12.50;;;15.50;99.90;;;;;;5133465;27;20552;-68
2021/09/18 08:42:55;;;;;;;13.90;12.50;;;15.70;99.90;;;;;;5132793;27;20930;-69
2021/09/18 08:45:22;;;;;;;13.50;11.57;;;15.80;99.90;;;;;;5131520;27;20472;-68
2021/09/18 08:47:50;;;;;;;12.47;11.37;;;15.90;99.90;;;;;;5133902;27;20450;-67
2021/09/18 08:50:20;;;;;;;11.13;10.13;;;16.20;99.90;;;;;;5133693;27;20450;-68
2021/09/18 08:52:48;;;;;;;11.60;10.50;;;16.50;99.90;;;;;;5133343;27;20467;-68
2021/09/18 08:55:16;;;;;;;11.50;10.30;;;16.60;99.90;;;;;;5133158;27;21016;-67
2021/09/18 08:57:44;;;;;;;11.57;10.47;;;16.80;99.90;;;;;;5133527;27;20832;-66
2021/09/18 09:00:55;;;;;;;12.87;10.73;;;17.00;99.90;;;;;;5133755;27;20452;-68
2021/09/18 09:03:27;;;;;;;16.07;11.60;;;17.20;99.90;;;;;;5117326;27;20543;-68
2021/09/18 09:06:06;;;;;;;11.47;10.37;;;17.50;99.90;;;;;;5131294;27;20468;-68
2021/09/18 09:08:34;;;;;;;369.20;74.40;;;18.00;99.90;;;;;;5128470;27;20435;-68
2021/09/18 09:11:15;;;;;;;550.97;115.57;;;18.20;99.90;;;;;;5132865;27;20479;-68
2021/09/18 09:13:58;;;;;;;46.57;16.93;;;18.40;99.90;;;;;;5133143;27;21068;-67
2021/09/18 09:16:26;;;;;;;49.30;17.57;;;18.90;99.90;;;;;;5132706;27;20850;-67
2021/09/18 09:18:53;;;;;;;11.70;9.47;;;19.40;99.90;;;;;;5132581;27;20491;-70
2021/09/18 09:21:23;;;;;;;10.47;8.83;;;19.90;99.90;;;;;;5133074;27;20797;-67
2021/09/18 09:24:08;;;;;;;8.40;7.53;;;20.20;99.90;;;;;;5131561;27;20436;-67
2021/09/18 09:26:36;;;;;;;9.17;8.27;;;20.80;99.90;;;;;;5131184;27;20460;-68
2021/09/18 09:29:04;;;;;;;8.77;7.97;;;20.80;99.90;;;;;;5132529;27;20698;-69
2021/09/18 09:31:33;;;;;;;8.37;6.90;;;21.00;99.90;;;;;;5132450;27;20527;-68
2021/09/18 09:34:05;;;;;;;9.20;7.30;;;21.40;99.90;;;;;;5132638;27;20484;-68
2021/09/18 09:36:40;;;;;;;8.73;7.80;;;21.50;99.90;;;;;;5132408;27;20500;-68
2021/09/18 09:39:09;;;;;;;8.33;7.40;;;21.60;99.90;;;;;;5132722;27;20822;-68
2021/09/18 09:41:38;;;;;;;8.47;7.67;;;21.90;99.90;;;;;;5131964;27;20453;-68
2021/09/18 09:44:10;;;;;;;7.90;6.90;;;21.90;99.90;;;;;;5132391;27;20483;-69
2021/09/18 09:46:37;;;;;;;13.20;7.97;;;22.10;99.90;;;;;;5132304;27;20473;-68
2021/09/18 09:49:06;;;;;;;7.10;6.40;;;21.90;99.90;;;;;;5132183;27;20450;-68
2021/09/18 09:51:35;;;;;;;8.33;7.47;;;21.90;99.90;;;;;;5128370;27;20539;-68
2021/09/18 09:54:22;;;;;;;8.90;8.00;;;22.20;99.90;;;;;;5132204;27;20845;-68
2021/09/18 09:57:04;;;;;;;8.73;7.93;;;22.40;99.90;;;;;;5132173;27;20466;-67
2021/09/18 09:59:31;;;;;;;6.70;6.10;;;22.40;99.90;;;;;;5132141;27;20543;-70
2021/09/18 10:01:59;;;;;;;8.50;7.60;;;22.40;99.90;;;;;;5132185;27;20483;-68
2021/09/18 10:04:26;;;;;;;16.10;7.60;;;22.50;99.90;;;;;;5131981;27;20447;-68
2021/09/18 10:06:55;;;;;;;8.80;6.80;;;22.40;99.90;;;;;;5132120;27;20833;-68
2021/09/18 10:09:23;;;;;;;7.43;6.83;;;22.50;99.90;;;;;;5131755;27;20960;-68
2021/09/18 10:11:53;;;;;;;11.23;7.23;;;22.60;99.90;;;;;;5131279;27;20933;-68
2021/09/18 10:14:22;;;;;;;11.03;6.90;;;22.90;99.90;;;;;;5131638;27;20472;-68
2021/09/18 10:16:50;;;;;;;7.30;6.60;;;23.00;99.90;;;;;;5131684;27;20471;-68
2021/09/18 10:19:19;;;;;;;17.10;5.83;;;23.50;99.90;;;;;;5131790;27;20903;-69
2021/09/18 10:24:35;;;;;;;3.20;2.70;;;24.30;98.80;;;;;;5130793;27;20959;-67
2021/09/18 10:27:19;;;;;;;5.47;4.97;;;24.70;98.20;;;;;;5123370;27;20476;-67
2021/09/18 10:29:46;;;;;;;9.83;6.10;;;24.50;96.60;;;;;;5121272;27;20436;-68
2021/09/18 10:32:13;;;;;;;7.13;4.80;;;24.10;98.00;;;;;;5129879;27;20432;-66
2021/09/18 10:34:40;;;;;;;5.33;4.80;;;24.10;98.20;;;;;;5130029;27;20476;-68
2021/09/18 10:37:07;;;;;;;4.90;4.00;;;24.60;97.30;;;;;;5130231;27;20820;-67
2021/09/18 10:39:35;;;;;;;4.10;3.10;;;24.90;96.60;;;;;;5130000;27;20455;-68
2021/09/18 10:42:03;;;;;;;3.87;3.23;;;25.40;96.30;;;;;;5129824;27;20456;-69
2021/09/18 10:44:51;;;;;;;3.70;2.93;;;25.40;94.10;;;;;;5130204;27;20436;-67
2021/09/18 10:47:38;;;;;;;3.80;3.37;;;25.10;94.60;;;;;;5129515;27;20440;-66
2021/09/18 10:50:07;;;;;;;4.63;3.67;;;25.60;94.80;;;;;;5127029;27;20540;-67
2021/09/18 10:52:36;;;;;;;5.70;4.10;;;25.60;92.50;;;;;;5124375;27;20440;-67
2021/09/18 10:55:13;;;;;;;4.40;4.00;;;25.10;94.10;;;;;;5129166;27;20492;-67
2021/09/18 10:58:09;;;;;;;4.20;3.30;;;25.10;94.20;;;;;;5125879;27;20456;-68
2021/09/18 11:00:50;;;;;;;3.97;3.57;;;25.80;94.60;;;;;;5128232;27;20440;-68
2021/09/18 11:03:37;;;;;;;3.53;2.77;;;26.80;93.20;;;;;;5124964;27;20448;-68
2021/09/18 11:06:04;;;;;;;4.63;3.10;;;27.60;90.80;;;;;;5126680;27;20460;-68
2021/09/18 11:08:35;;;;;;;4.47;3.70;;;28.10;90.80;;;;;;5128942;27;20432;-68
2021/09/18 11:11:07;;;;;;;4.30;3.90;;;28.10;90.30;;;;;;5129799;27;20984;-67
2021/09/18 11:13:37;;;;;;;3.90;3.27;;;28.60;90.20;;;;;;5128229;27;20472;-67
2021/09/18 11:16:08;;;;;;;3.50;3.20;;;28.90;88.70;;;;;;5128949;27;20474;-66
2021/09/18 11:18:38;;;;;;;4.37;3.97;;;29.00;87.20;;;;;;5130342;27;20547;-66
2021/09/18 11:21:18;;;;;;;3.77;3.20;;;28.60;86.90;;;;;;5125547;27;21026;-67
2021/09/18 11:23:47;;;;;;;3.30;3.00;;;28.90;87.00;;;;;;5123748;27;20435;-69
2021/09/18 11:26:40;;;;;;;4.10;3.23;;;29.50;87.10;;;;;;5128800;27;20986;-66
2021/09/18 11:29:12;;;;;;;3.77;3.10;;;29.70;86.00;;;;;;5129064;27;20869;-66
2021/09/18 11:31:40;;;;;;;3.60;2.90;;;30.40;80.10;;;;;;5128713;27;20440;-68
2021/09/18 11:34:07;;;;;;;3.90;3.10;;;29.80;77.20;;;;;;5127544;27;20491;-68
2021/09/18 11:36:44;;;;;;;3.53;3.13;;;29.00;83.10;;;;;;5128233;27;20472;-67
2021/09/18 11:39:11;;;;;;;3.20;2.87;;;29.50;81.70;;;;;;5130167;27;20437;-67
2021/09/18 11:41:40;;;;;;;5.90;3.73;;;29.70;82.20;;;;;;5132889;27;20464;-68
2021/09/18 11:44:10;;;;;;;3.40;2.83;;;30.20;74.70;;;;;;5134008;27;20460;-68
2021/09/18 11:46:37;;;;;;;4.47;3.60;;;29.70;79.40;;;;;;5134074;27;20467;-67
2021/09/18 11:49:06;;;;;;;3.90;3.40;;;29.30;81.70;;;;;;5134767;27;20444;-68
2021/09/18 11:51:34;;;;;;;3.30;3.00;;;30.10;79.90;;;;;;5134073;27;20955;-67
2021/09/18 11:54:02;;;;;;;3.63;3.03;;;30.20;74.10;;;;;;5134543;27;21055;-68
2021/09/18 11:56:29;;;;;;;3.63;3.30;;;30.50;74.30;;;;;;5130673;27;20476;-68
2021/09/18 11:59:07;;;;;;;4.47;3.70;;;30.60;75.90;;;;;;5127406;27;20451;-67
2021/09/18 12:01:35;;;;;;;5.43;3.80;;;30.90;75.40;;;;;;5118737;27;20949;-67
2021/09/18 12:04:02;;;;;;;3.87;3.40;;;31.20;70.70;;;;;;5127297;27;20539;-68
2021/09/18 12:06:31;;;;;;;4.13;3.73;;;31.90;72.40;;;;;;5127803;27;20461;-68
2021/09/18 12:08:59;;;;;;;4.53;3.33;;;32.30;70.00;;;;;;5124394;27;20535;-68
2021/09/18 12:11:25;;;;;;;4.00;3.60;;;33.00;67.30;;;;;;5125857;27;20523;-66
2021/09/18 12:13:55;;;;;;;3.80;2.87;;;31.70;67.40;;;;;;5130390;27;20859;-67
2021/09/18 12:16:25;;;;;;;4.03;3.63;;;32.00;69.30;;;;;;5126501;27;20855;-66
2021/09/18 12:18:56;;;;;;;3.63;3.33;;;32.50;66.30;;;;;;5133476;27;20442;-66
2021/09/18 12:21:25;;;;;;;4.47;3.90;;;33.40;65.50;;;;;;5133509;27;20523;-65
2021/09/18 12:23:56;;;;;;;4.63;3.50;;;33.10;60.40;;;;;;5133449;27;20437;-67
2021/09/18 12:26:25;;;;;;;4.30;3.67;;;33.80;64.60;;;;;;5133475;27;20543;-66
2021/09/18 12:29:05;;;;;;;4.00;3.60;;;33.60;59.90;;;;;;5131872;27;20561;-66
2021/09/18 12:31:33;;;;;;;3.63;3.23;;;32.80;65.00;;;;;;5131155;27;20456;-67
2021/09/18 12:34:08;;;;;;;5.23;4.00;;;33.00;65.00;;;;;;5133686;27;20480;-65
2021/09/18 12:36:35;;;;;;;4.60;4.20;;;33.80;62.30;;;;;;5133231;27;20491;-66
2021/09/18 12:39:05;;;;;;;3.87;3.40;;;32.30;63.50;;;;;;5133689;27;20449;-66
2021/09/18 12:41:32;;;;;;;8.17;3.67;;;33.10;65.50;;;;;;5133280;27;20528;-66
2021/09/18 12:44:01;;;;;;;4.00;3.60;;;33.80;60.70;;;;;;5134093;27;20443;-65